Time;durP1;ratioP1;P1;durP2;ratioP2;P2;SDS_P1;SDS_P2;PMS_P1;PMS_P2;Temp;Humidity;BMP_temperature;BMP_pressure;BME280_temperature;BME280_humidity;BME280_pressure;Samples;Min_cycle;Max_cycle;Signal;HPM_P1;HPM_P2
2022/05/06 00:01:44;;;;;;;11.10;8.40;;;;;;;12.72;82.32;98817.49;106578;1274;22714;-83
2022/05/06 00:07:34;;;;;;;14.60;9.40;;;;;;;12.66;82.44;98818.17;106707;1274;136960;-83
2022/05/06 00:10:05;;;;;;;12.40;10.00;;;;;;;12.66;82.62;98819.70;106381;1277;22695;-83
2022/05/06 00:12:46;;;;;;;10.90;9.80;;;;;;;12.64;82.54;98818.19;106227;1274;138115;-83
2022/05/06 00:15:12;;;;;;;11.30;9.00;;;;;;;12.64;82.45;98820.98;106513;1274;22732;-83
2022/05/06 00:17:42;;;;;;;12.20;9.80;;;;;;;12.61;82.71;98820.70;106229;1277;137687;-83
2022/05/06 00:20:08;;;;;;;;;;;;;;;12.59;82.79;98820.52;106621;1277;25905;-82
2022/05/06 00:22:35;;;;;;;11.60;10.20;;;;;;;12.53;82.68;98815.18;106925;1277;22555;-82
2022/05/06 00:25:05;;;;;;;16.30;9.30;;;;;;;12.47;82.44;98811.42;106234;1277;138340;-82
2022/05/06 00:27:31;;;;;;;11.50;9.30;;;;;;;12.42;82.15;98814.08;106195;1274;22674;-83
2022/05/06 00:29:57;;;;;;;11.10;9.60;;;;;;;12.39;82.34;98820.14;106113;1274;138588;-82
2022/05/06 00:32:25;;;;;;;13.80;10.50;;;;;;;12.35;82.64;98819.36;106347;1274;24221;-82
2022/05/06 00:34:52;;;;;;;13.10;10.60;;;;;;;12.33;82.83;98821.02;106500;1274;22629;-83
2022/05/06 00:37:19;;;;;;;10.00;9.00;;;;;;;12.30;82.68;98825.83;106540;1277;139827;-82
2022/05/06 00:39:46;;;;;;;10.50;9.40;;;;;;;12.29;83.05;98831.84;105873;1277;22570;-82
2022/05/06 00:42:16;;;;;;;13.70;9.80;;;;;;;12.30;83.17;98836.86;105965;1277;138032;-82
2022/05/06 00:44:43;;;;;;;13.40;10.10;;;;;;;12.28;83.18;98841.86;106343;1277;24319;-82
2022/05/06 00:47:10;;;;;;;11.90;9.90;;;;;;;12.28;83.12;98849.88;106321;1277;24564;-83
2022/05/06 00:49:37;;;;;;;13.00;10.60;;;;;;;12.28;83.10;98859.42;106124;1274;138162;-83
2022/05/06 00:52:07;;;;;;;12.10;10.80;;;;;;;12.28;83.50;98867.20;106158;1277;24517;-82
2022/05/06 00:54:34;;;;;;;13.50;10.90;;;;;;;12.30;83.36;98865.27;106219;1274;138440;-82
2022/05/06 00:57:01;;;;;;;14.20;12.20;;;;;;;12.30;82.86;98869.73;106132;1277;24093;-82
2022/05/06 00:59:28;;;;;;;14.80;12.40;;;;;;;12.24;82.72;98870.52;106126;1277;137640;-83
2022/05/06 01:01:56;;;;;;;13.50;11.30;;;;;;;12.20;82.42;98869.23;106554;1277;22634;-83
2022/05/06 01:04:23;;;;;;;11.40;10.10;;;;;;;12.09;82.34;98867.62;106310;1277;25256;-83
2022/05/06 01:06:50;;;;;;;14.50;12.10;;;;;;;12.01;82.92;98859.11;106026;1277;137899;-83
2022/05/06 01:09:18;;;;;;;13.50;12.00;;;;;;;11.97;82.94;98864.17;106291;1277;22613;-82
2022/05/06 01:11:47;;;;;;;15.00;12.80;;;;;;;11.92;82.82;98870.05;106245;1274;137985;-82
2022/05/06 01:14:35;;;;;;;15.90;12.30;;;;;;;11.90;83.29;98872.33;106257;1274;22580;-83
2022/05/06 01:17:14;;;;;;;16.00;12.20;;;;;;;11.90;83.25;98873.75;106354;1274;22587;-83
2022/05/06 01:19:40;;;;;;;13.80;11.50;;;;;;;11.90;83.46;98873.95;106609;1277;137872;-83
2022/05/06 01:22:06;;;;;;;13.60;11.60;;;;;;;11.86;83.09;98876.54;106463;1277;22568;-83
2022/05/06 01:24:33;;;;;;;13.70;11.80;;;;;;;11.84;83.24;98873.89;106231;1277;137909;-83
2022/05/06 01:27:08;;;;;;;15.30;10.50;;;;;;;11.82;83.62;98875.15;106095;1277;24444;-82
2022/05/06 01:29:37;;;;;;;14.60;11.30;;;;;;;11.83;83.94;98877.54;106344;1277;138459;-82
2022/05/06 01:32:04;;;;;;;13.80;10.10;;;;;;;11.85;83.97;98878.54;106230;1277;22579;-84
2022/05/06 01:34:34;;;;;;;15.10;11.10;;;;;;;11.87;84.07;98876.85;106283;1274;24291;-83
2022/05/06 01:37:03;;;;;;;14.00;10.70;;;;;;;11.89;84.11;98877.33;106444;1274;137708;-83
2022/05/06 01:39:37;;;;;;;13.20;10.40;;;;;;;11.85;83.93;98879.09;106268;1274;24362;-83
2022/05/06 01:42:09;;;;;;;12.70;10.70;;;;;;;11.82;84.18;98879.48;105991;1277;139212;-82
2022/05/06 01:44:43;;;;;;;11.60;9.90;;;;;;;11.82;83.97;98878.70;106183;1277;22757;-82
2022/05/06 01:47:19;;;;;;;12.50;9.60;;;;;;;11.81;84.18;98877.11;106530;1277;22627;-82
2022/05/06 01:49:52;;;;;;;13.50;10.40;;;;;;;11.79;84.12;98873.30;106048;1274;137362;-82
2022/05/06 01:52:20;;;;;;;13.20;9.50;;;;;;;11.76;84.48;98870.95;106383;1274;25333;-82
2022/05/06 01:54:50;;;;;;;11.60;9.20;;;;;;;11.77;84.39;98877.08;106356;1274;138560;-82
2022/05/06 01:57:17;;;;;;;11.00;8.10;;;;;;;11.77;84.69;98880.64;106241;1275;22546;-82
2022/05/06 01:59:44;;;;;;;9.50;8.50;;;;;;;11.79;84.66;98884.20;106139;1276;138346;-82
2022/05/06 02:02:21;;;;;;;13.70;9.80;;;;;;;11.81;85.00;98886.73;106174;1277;24328;-82
2022/05/06 02:07:33;;;;;;;9.40;8.40;;;;;;;11.78;84.62;98888.24;106254;1277;138573;-82
2022/05/06 02:10:00;;;;;;;10.20;7.90;;;;;;;11.78;84.61;98886.87;106367;1275;22561;-80
2022/05/06 02:12:30;;;;;;;10.20;8.60;;;;;;;11.77;84.70;98882.44;106386;1274;138306;-82
2022/05/06 02:15:04;;;;;;;10.60;8.40;;;;;;;11.78;85.04;98887.96;106426;1277;23951;-84
2022/05/06 02:17:54;;;;;;;10.50;8.30;;;;;;;11.78;84.57;98883.81;106344;1274;137538;-83
2022/05/06 02:20:34;;;;;;;11.90;7.70;;;;;;;11.77;84.86;98889.15;106849;1274;22721;-82
2022/05/06 02:23:19;;;;;;;10.60;9.20;;;;;;;11.78;84.71;98887.48;106659;1277;22585;-83
2022/05/06 02:25:56;;;;;;;15.20;13.70;;;;;;;11.79;84.82;98891.46;106355;1277;137394;-83
2022/05/06 02:28:37;;;;;;;14.50;12.20;;;;;;;11.79;84.56;98898.17;106669;1277;25509;-82
2022/05/06 02:34:18;;;;;;;9.80;8.10;;;;;;;11.73;84.45;98899.94;106575;1277;24085;-83
2022/05/06 02:36:58;;;;;;;9.20;7.70;;;;;;;11.72;84.20;98896.40;106496;1277;137659;-83
2022/05/06 02:39:33;;;;;;;10.00;8.90;;;;;;;11.67;83.75;98894.44;106369;1276;22631;-83
2022/05/06 02:42:29;;;;;;;11.90;10.20;;;;;;;11.64;84.34;98896.73;106240;1277;137572;-82
2022/05/06 02:45:13;;;;;;;9.80;8.30;;;;;;;11.60;84.64;98894.91;106584;1274;24381;-83
2022/05/06 02:47:41;;;;;;;11.10;8.40;;;;;;;11.59;84.63;98894.23;106893;1275;138960;-82
2022/05/06 02:50:11;;;;;;;10.80;9.10;;;;;;;11.63;84.70;98894.20;106578;1274;22638;-82
2022/05/06 02:52:43;;;;;;;11.40;8.50;;;;;;;11.66;84.47;98896.61;106393;1277;22731;-82
2022/05/06 02:55:10;;;;;;;11.30;9.20;;;;;;;11.68;84.19;98895.34;106201;1277;137793;-83
2022/05/06 02:57:40;;;;;;;10.90;8.60;;;;;;;11.68;84.30;98896.15;106565;1277;23794;-82
2022/05/06 03:00:07;;;;;;;10.40;8.10;;;;;;;11.66;84.21;98892.14;106633;1276;138191;-82
2022/05/06 03:02:37;;;;;;;10.60;8.60;;;;;;;11.67;84.48;98898.09;106510;1277;24093;-82
2022/05/06 03:05:06;;;;;;;10.00;8.90;;;;;;;11.66;84.19;98901.13;106317;1277;23016;-82
2022/05/06 03:07:33;;;;;;;11.70;9.60;;;;;;;11.64;84.44;98903.33;106815;1277;137573;-82
2022/05/06 03:10:00;;;;;;;11.20;9.10;;;;;;;11.63;84.52;98903.77;106354;1275;25392;-82
2022/05/06 03:12:32;;;;;;;12.20;8.40;;;;;;;11.65;84.55;98910.40;106416;1277;138263;-82
2022/05/06 03:15:07;;;;;;;12.10;8.20;;;;;;;11.66;84.83;98918.86;106554;1274;23117;-82
2022/05/06 03:17:42;;;;;;;11.30;9.60;;;;;;;11.71;85.23;98927.48;106309;1275;137573;-83
2022/05/06 03:20:09;;;;;;;10.70;8.80;;;;;;;11.75;84.92;98932.44;106470;1277;23425;-83
2022/05/06 03:22:50;;;;;;;9.20;8.00;;;;;;;11.78;84.94;98938.67;106466;1277;31351;-82
2022/05/06 03:25:17;;;;;;;10.50;7.50;;;;;;;11.81;84.76;98946.09;106153;1277;138024;-83
2022/05/06 03:30:26;;;;;;;15.10;8.40;;;;;;;11.83;84.15;98951.20;106268;1277;137549;-82
2022/05/06 03:32:57;;;;;;;10.60;8.80;;;;;;;11.84;84.29;98956.95;106569;1275;22607;-83
2022/05/06 03:35:23;;;;;;;10.60;8.70;;;;;;;11.85;84.42;98962.10;106503;1277;23221;-82
2022/05/06 03:37:52;;;;;;;11.90;9.40;;;;;;;11.84;84.21;98959.74;106517;1274;138537;-83
2022/05/06 03:40:20;;;;;;;11.30;9.50;;;;;;;11.85;84.81;98959.10;106725;1274;22700;-82
2022/05/06 03:42:46;;;;;;;13.10;10.00;;;;;;;11.85;84.66;98960.48;106730;1277;137701;-83
2022/05/06 03:45:14;;;;;;;13.20;11.00;;;;;;;11.85;84.74;98960.53;106733;1274;22605;-83
2022/05/06 03:47:44;;;;;;;16.50;10.00;;;;;;;11.86;85.21;98960.92;106790;1277;137956;-83
2022/05/06 03:52:52;;;;;;;17.60;11.90;;;;;;;11.86;84.98;98963.23;106589;1277;22548;-83
2022/05/06 03:55:22;;;;;;;15.90;13.00;;;;;;;11.83;85.15;98955.20;106451;1277;139183;-82
2022/05/06 03:57:49;;;;;;;17.90;12.90;;;;;;;11.83;85.48;98962.21;107139;1274;23178;-82
2022/05/06 04:00:19;;;;;;;13.80;10.40;;;;;;;11.84;85.69;98952.49;107049;1277;139604;-83
2022/05/06 04:02:49;;;;;;;14.30;12.30;;;;;;;11.85;85.75;98948.41;106907;1278;23293;-82
2022/05/06 04:05:20;;;;;;;17.50;12.30;;;;;;;11.84;85.31;98946.36;106841;1277;22668;-82
2022/05/06 04:07:48;;;;;;;15.50;11.80;;;;;;;11.82;85.30;98943.92;106419;1277;137958;-82
2022/05/06 04:10:18;;;;;;;15.70;12.50;;;;;;;11.81;85.67;98947.06;106359;1277;22563;-82
2022/05/06 04:12:46;;;;;;;16.40;11.40;;;;;;;11.81;86.09;98946.98;106452;1277;137885;-82
2022/05/06 04:15:13;;;;;;;15.60;12.10;;;;;;;11.85;86.00;98946.01;106360;1274;22557;-82
2022/05/06 04:17:41;;;;;;;14.60;11.60;;;;;;;11.89;86.37;98943.11;106805;1277;138468;-81
2022/05/06 04:25:30;;;;;;;16.00;12.60;;;;;;;12.14;86.58;98942.45;106520;1277;137708;-81
2022/05/06 04:27:59;;;;;;;19.50;13.90;;;;;;;12.20;86.19;98938.16;106581;1277;22689;-81
2022/05/06 04:30:40;;;;;;;17.10;11.80;;;;;;;12.29;85.91;98934.61;106318;1277;138239;-81
2022/05/06 04:33:13;;;;;;;16.20;13.00;;;;;;;12.30;85.54;98931.36;106641;1274;24312;-81
2022/05/06 04:35:42;;;;;;;18.90;14.30;;;;;;;12.33;85.60;98936.65;106409;1274;140503;-82
2022/05/06 04:38:11;;;;;;;18.50;14.70;;;;;;;12.35;85.92;98939.09;106523;1274;25444;-82
2022/05/06 04:40:40;;;;;;;15.80;13.10;;;;;;;12.40;85.88;98935.46;106401;1277;22557;-82
2022/05/06 04:43:07;;;;;;;17.90;12.90;;;;;;;12.43;85.65;98938.31;106271;1277;138389;-82
2022/05/06 04:45:45;;;;;;;16.80;13.40;;;;;;;12.42;85.27;98936.45;106415;1277;23174;-81
2022/05/06 04:48:13;;;;;;;21.60;15.20;;;;;;;12.38;85.48;98937.63;106390;1277;138240;-81
2022/05/06 04:50:43;;;;;;;20.60;15.90;;;;;;;12.35;85.44;98935.92;106541;1277;22566;-81
2022/05/06 04:53:10;;;;;;;19.60;14.50;;;;;;;12.35;85.58;98933.26;106719;1274;22618;-81
2022/05/06 04:55:39;;;;;;;17.60;13.90;;;;;;;12.40;85.71;98931.88;106498;1274;138660;-81
2022/05/06 04:58:07;;;;;;;16.30;13.30;;;;;;;12.53;86.30;98935.77;106709;1277;22573;-83
2022/05/06 05:00:34;;;;;;;17.10;14.30;;;;;;;12.68;86.24;98942.75;106712;1274;138204;-81
2022/05/06 05:03:15;;;;;;;20.70;15.70;;;;;;;12.81;86.07;98949.41;106278;1277;22700;-82
2022/05/06 05:05:43;;;;;;;23.10;16.10;;;;;;;12.88;85.93;98949.27;106832;1277;137907;-82
2022/05/06 05:08:10;;;;;;;20.20;15.20;;;;;;;12.95;86.02;98952.23;106382;1277;22621;-82
2022/05/06 05:10:41;;;;;;;24.50;14.60;;;;;;;13.03;85.91;98950.54;106567;1277;25325;-82
2022/05/06 05:13:07;;;;;;;20.80;14.40;;;;;;;13.13;85.91;98955.35;105962;1277;139205;-82
2022/05/06 05:15:49;;;;;;;20.50;16.10;;;;;;;13.23;85.57;98957.04;106342;1277;22699;-82
2022/05/06 05:18:15;;;;;;;21.00;15.80;;;;;;;13.30;85.62;98956.02;106487;1274;137630;-83
2022/05/06 05:20:45;;;;;;;20.50;15.60;;;;;;;13.36;85.33;98951.14;106668;1276;22548;-82
2022/05/06 05:23:12;;;;;;;20.00;15.70;;;;;;;13.42;85.21;98954.40;106404;1277;22602;-82
2022/05/06 05:25:39;;;;;;;23.00;17.40;;;;;;;13.47;84.68;98958.52;106548;1277;137969;-82
2022/05/06 05:28:06;;;;;;;27.60;16.50;;;;;;;13.50;84.57;98957.23;106393;1277;22621;-82
2022/05/06 05:30:38;;;;;;;25.20;17.80;;;;;;;13.52;84.27;98950.53;106514;1277;137723;-82
2022/05/06 05:33:06;;;;;;;;;;;;;;;13.52;84.33;98952.39;106431;1277;23384;-82
2022/05/06 05:35:33;;;;;;;23.40;16.10;;;;;;;13.57;84.28;98946.34;106490;1274;22569;-82
2022/05/06 05:38:04;;;;;;;21.60;15.60;;;;;;;13.60;83.97;98943.81;106548;1274;138376;-82
2022/05/06 05:40:31;;;;;;;23.60;17.40;;;;;;;13.57;83.43;98947.54;106418;1277;22557;-82
2022/05/06 05:42:58;;;;;;;22.00;16.00;;;;;;;13.47;83.48;98953.48;106515;1274;138385;-82
2022/05/06 05:48:23;;;;;;;21.90;16.60;;;;;;;13.34;83.93;98951.59;106254;1277;138974;-83
2022/05/06 05:50:59;;;;;;;22.70;16.60;;;;;;;13.32;83.94;98946.85;106487;1277;22685;-82
2022/05/06 05:53:32;;;;;;;24.30;17.60;;;;;;;13.35;84.57;98949.52;106466;1277;22597;-82
2022/05/06 05:55:59;;;;;;;20.70;17.50;;;;;;;13.42;84.76;98949.58;106504;1277;138102;-83
2022/05/06 05:58:26;;;;;;;24.20;18.60;;;;;;;13.54;85.02;98957.73;106526;1274;22645;-83
2022/05/06 06:00:54;;;;;;;21.30;16.40;;;;;;;13.63;84.91;98951.29;106524;1274;138095;-83
2022/05/06 06:03:26;;;;;;;22.10;16.40;;;;;;;13.63;84.15;98956.16;106740;1274;22614;-83
2022/05/06 06:05:53;;;;;;;22.80;17.50;;;;;;;13.58;84.00;98959.38;106348;1274;138492;-83
2022/05/06 06:08:23;;;;;;;26.20;18.40;;;;;;;13.59;84.45;98965.58;106472;1277;22547;-82
2022/05/06 06:10:51;;;;;;;27.50;20.30;;;;;;;13.55;84.21;98963.83;106733;1277;24437;-83
2022/05/06 06:13:17;;;;;;;29.00;19.20;;;;;;;13.52;84.49;98963.84;106390;1277;137934;-83
2022/05/06 06:15:46;;;;;;;27.10;18.10;;;;;;;13.55;84.98;98964.54;106577;1274;22713;-83
2022/05/06 06:18:15;;;;;;;28.00;18.40;;;;;;;13.62;84.85;98965.67;106541;1274;138404;-83
2022/05/06 06:20:42;;;;;;;26.50;20.20;;;;;;;13.66;84.90;98968.74;106702;1274;24221;-83
2022/05/06 06:23:09;;;;;;;30.00;20.60;;;;;;;13.74;84.97;98966.22;106438;1276;22591;-83
2022/05/06 06:25:35;;;;;;;29.10;20.80;;;;;;;13.82;85.07;98961.07;106393;1277;137684;-83
2022/05/06 06:28:16;;;;;;;30.20;19.20;;;;;;;13.89;84.64;98965.59;106250;1277;23372;-83
2022/05/06 06:30:44;;;;;;;26.50;18.30;;;;;;;13.97;84.79;98972.30;106214;1277;138217;-81
2022/05/06 06:33:25;;;;;;;24.70;19.90;;;;;;;14.07;84.61;98979.57;106283;1277;22749;-83
2022/05/06 06:35:53;;;;;;;27.60;21.90;;;;;;;14.15;84.47;98982.63;106310;1277;139147;-81
2022/05/06 06:38:34;;;;;;;28.30;20.80;;;;;;;14.26;84.58;98981.04;106513;1274;22553;-83
2022/05/06 06:41:01;;;;;;;36.00;21.10;;;;;;;14.33;84.32;98984.09;106428;1274;22632;-83
2022/05/06 06:43:28;;;;;;;33.10;19.70;;;;;;;14.38;84.05;98984.48;106398;1274;138111;-83
2022/05/06 06:46:08;;;;;;;29.60;19.10;;;;;;;14.46;84.16;98986.77;106560;1274;22706;-83
2022/05/06 06:48:49;;;;;;;29.10;19.80;;;;;;;14.50;84.02;98986.85;106510;1277;137931;-82
2022/05/06 06:51:31;;;;;;;27.90;19.90;;;;;;;14.54;83.59;98985.37;106413;1277;22600;-83
2022/05/06 06:53:58;;;;;;;28.60;19.50;;;;;;;14.57;83.71;98984.80;105977;1277;137783;-83
2022/05/06 06:56:40;;;;;;;28.50;19.70;;;;;;;14.61;83.75;98988.48;106197;1277;22540;-83
2022/05/06 06:59:21;;;;;;;25.30;18.40;;;;;;;14.67;83.62;98991.27;106538;1277;22629;-83
2022/05/06 07:01:47;;;;;;;32.90;21.50;;;;;;;14.69;83.11;98991.46;106534;1277;137746;-83
2022/05/06 07:04:15;;;;;;;31.60;20.50;;;;;;;14.70;83.01;98989.77;106029;1274;25392;-85
2022/05/06 07:12:18;;;;;;;27.00;19.40;;;;;;;14.81;83.02;98993.55;105917;1277;138527;-83
2022/05/06 07:14:44;;;;;;;25.80;18.00;;;;;;;14.85;83.00;98993.60;106159;1277;22598;-83
2022/05/06 07:17:25;;;;;;;31.20;22.00;;;;;;;14.93;82.57;98998.88;106843;1274;22717;-82
2022/05/06 07:20:07;;;;;;;29.80;22.60;;;;;;;14.99;82.27;98999.10;106340;1274;137564;-83
2022/05/06 07:22:33;;;;;;;31.10;23.20;;;;;;;15.04;82.33;99000.63;106765;1275;22677;-82
2022/05/06 07:24:59;;;;;;;27.40;20.50;;;;;;;15.11;82.27;99001.95;106406;1274;138299;-82
2022/05/06 07:27:26;;;;;;;32.40;21.70;;;;;;;15.18;81.75;99001.06;106569;1277;22618;-83
2022/05/06 07:29:53;;;;;;;28.20;19.90;;;;;;;15.20;81.56;99005.59;106058;1277;137650;-83
2022/05/06 07:32:21;;;;;;;34.80;20.60;;;;;;;15.18;81.18;99007.33;106217;1277;22556;-83
2022/05/06 07:34:48;;;;;;;28.20;21.50;;;;;;;15.13;81.39;99005.52;106457;1277;23926;-83
2022/05/06 07:37:16;;;;;;;25.00;18.80;;;;;;;15.10;81.52;99010.92;106672;1277;138300;-82
2022/05/06 07:39:50;;;;;;;25.00;19.70;;;;;;;15.13;81.13;99016.45;106026;1277;25250;-84
2022/05/06 07:42:17;;;;;;;23.10;17.50;;;;;;;15.20;81.48;99014.59;105934;1280;138442;-82
2022/05/06 07:44:58;;;;;;;23.50;18.40;;;;;;;15.28;82.05;99020.69;105938;1280;22558;-83
2022/05/06 07:47:26;;;;;;;33.80;20.60;;;;;;;15.29;81.45;99017.95;106538;1274;22572;-83
2022/05/06 07:49:53;;;;;;;23.00;18.50;;;;;;;15.26;81.17;99014.73;106051;1277;138758;-83
2022/05/06 07:56:05;;;;;;;26.60;20.30;;;;;;;15.26;81.18;99019.40;106423;1274;140899;-83
2022/05/06 07:58:33;;;;;;;28.60;21.70;;;;;;;15.27;80.73;99017.38;106210;1277;24356;-83
2022/05/06 08:00:59;;;;;;;32.80;19.80;;;;;;;15.25;80.81;99016.26;106311;1277;138941;-82
2022/05/06 08:06:05;;;;;;;28.10;20.90;;;;;;;15.22;80.38;99021.02;106171;1277;138124;-83
2022/05/06 08:08:47;;;;;;;30.70;23.10;;;;;;;15.21;80.76;99021.95;106186;1276;31483;-84
2022/05/06 08:11:13;;;;;;;31.60;23.10;;;;;;;15.19;80.76;99021.16;106156;1277;23203;-82
2022/05/06 08:13:40;;;;;;;32.20;22.50;;;;;;;15.16;80.91;99024.87;106057;1277;138539;-82
2022/05/06 08:16:07;;;;;;;28.60;21.20;;;;;;;15.13;80.73;99028.86;106192;1274;25602;-82
2022/05/06 08:18:33;;;;;;;32.00;23.20;;;;;;;15.09;80.76;99023.04;106287;1277;137470;-78
2022/05/06 08:21:00;;;;;;;28.10;21.20;;;;;;;15.02;80.49;99024.02;105943;1277;22571;-80
2022/05/06 08:23:26;;;;;;;31.00;22.80;;;;;;;14.96;80.53;99020.24;105993;1277;413277;-82
2022/05/06 08:26:07;;;;;;;31.40;24.80;;;;;;;14.95;80.54;99024.29;106131;1277;138428;-81
2022/05/06 08:28:34;;;;;;;40.60;26.40;;;;;;;14.97;80.97;99024.59;106154;1277;24236;-82
2022/05/06 08:31:01;;;;;;;30.80;23.30;;;;;;;15.07;80.89;99025.77;106123;1277;137443;-82
2022/05/06 08:33:28;;;;;;;35.00;25.70;;;;;;;15.14;80.97;99028.31;106244;1277;25468;-89
2022/05/06 08:36:13;;;;;;;34.30;23.80;;;;;;;15.22;80.72;99031.33;106242;1277;138428;-92
2022/05/06 08:38:43;;;;;;;29.10;22.10;;;;;;;15.25;80.48;99035.59;106461;1277;26594;-91
2022/05/06 08:41:12;;;;;;;36.70;27.10;;;;;;;15.29;80.19;99030.41;106328;1277;22643;-93
2022/05/06 08:43:38;;;;;;;;;;;;;;;15.31;80.18;99024.77;105996;1277;137723;-83
2022/05/06 08:52:27;;;;;;;31.40;21.80;;;;;;;15.31;79.68;99032.02;106472;1277;25525;-86
2022/05/06 08:54:54;;;;;;;26.00;19.20;;;;;;;15.29;79.67;99037.16;106143;1274;138532;-82
2022/05/06 08:57:29;;;;;;;36.30;23.40;;;;;;;15.26;79.47;99035.05;106235;1274;22651;-82
2022/05/06 08:59:56;;;;;;;24.80;18.80;;;;;;;15.26;79.70;99038.02;105830;1274;138606;-77
2022/05/06 09:02:23;;;;;;;39.00;22.10;;;;;;;15.31;79.46;99038.11;106036;1277;25565;-80
2022/05/06 09:04:53;;;;;;;33.70;22.60;;;;;;;15.39;79.96;99039.39;106217;1277;23182;-81
2022/05/06 09:07:21;;;;;;;31.00;20.50;;;;;;;15.44;79.70;99040.13;106276;1277;137699;-80
2022/05/06 09:10:05;;;;;;;29.00;20.70;;;;;;;15.45;79.33;99036.19;106160;1277;22560;-78
2022/05/06 09:13:16;;;;;;;27.60;19.80;;;;;;;15.48;79.32;99039.83;106198;1274;138542;-80
2022/05/06 09:19:35;;;;;;;26.80;20.10;;;;;;;15.66;79.12;99045.39;106475;1274;137933;-80
2022/05/06 09:24:53;;;;;;;28.40;19.60;;;;;;;15.84;78.99;99045.65;103699;1299;557415;-82
2022/05/06 09:27:31;;;;;;;24.40;18.50;;;;;;;16.05;78.44;99046.65;105007;1290;22803;-82
2022/05/06 09:29:57;;;;;;;22.70;18.30;;;;;;;16.15;77.98;99050.23;104881;1291;137976;-80
2022/05/06 09:32:26;;;;;;;31.50;22.30;;;;;;;16.21;77.57;99051.80;105036;1290;22573;-80
2022/05/06 09:35:15;;;;;;;28.50;22.70;;;;;;;16.28;77.61;99050.73;105304;1290;22769;-80
2022/05/06 09:37:42;;;;;;;;;;;;;;;16.40;77.99;99046.94;104988;1289;245051;-81
2022/05/06 09:40:37;;;;;;;31.70;22.00;;;;;;;16.50;77.90;99046.54;105134;1289;22554;-81
2022/05/06 09:43:05;;;;;;;29.20;22.00;;;;;;;16.62;77.37;99048.89;105180;1289;138449;-80
2022/05/06 09:45:46;;;;;;;30.80;23.40;;;;;;;16.67;76.76;99047.20;105459;1289;22711;-80
2022/05/06 09:48:14;;;;;;;35.70;24.80;;;;;;;16.70;76.67;99048.90;105091;1287;137369;-80
2022/05/06 09:50:42;;;;;;;30.80;22.10;;;;;;;16.73;76.68;99050.66;105224;1287;22574;-80
2022/05/06 09:53:13;;;;;;;29.20;23.30;;;;;;;16.75;76.25;99053.55;105177;1287;22588;-83
2022/05/06 09:55:46;;;;;;;30.40;21.40;;;;;;;16.77;76.15;99052.00;105193;1287;138123;-81
2022/05/06 09:58:17;;;;;;;33.60;22.20;;;;;;;16.79;76.21;99054.33;105223;1287;25395;-80
2022/05/06 10:00:43;;;;;;;33.60;24.20;;;;;;;16.78;75.46;99055.20;105336;1287;137214;-80
2022/05/06 10:03:10;;;;;;;33.10;24.10;;;;;;;16.72;75.28;99049.95;105241;1287;22683;-80
2022/05/06 10:05:52;;;;;;;34.10;25.10;;;;;;;16.69;75.83;99054.55;104687;1289;137526;-81
2022/05/06 10:08:20;;;;;;;33.40;24.90;;;;;;;16.68;75.82;99051.15;105065;1289;22721;-80
2022/05/06 10:11:00;;;;;;;29.20;21.90;;;;;;;16.68;75.74;99051.64;104996;1287;23177;-80
2022/05/06 10:13:31;;;;;;;33.30;23.70;;;;;;;16.66;75.89;99051.97;104956;1287;137521;-80
2022/05/06 10:15:57;;;;;;;36.90;25.50;;;;;;;16.72;76.17;99052.38;105180;1287;25414;-80
2022/05/06 10:18:35;;;;;;;36.60;24.60;;;;;;;16.79;76.46;99052.61;106054;1277;137491;-80
2022/05/06 10:21:17;;;;;;;35.90;26.70;;;;;;;16.88;76.22;99057.85;106159;1277;22585;-80
2022/05/06 10:24:14;;;;;;;35.10;25.20;;;;;;;16.92;76.13;99058.34;106236;1277;137521;-80
2022/05/06 10:26:45;;;;;;;36.30;23.90;;;;;;;16.96;75.89;99059.56;106417;1276;22577;-81
2022/05/06 10:35:02;;;;;;;36.30;28.10;;;;;;;17.09;76.37;99059.70;106111;1277;22569;-80
2022/05/06 10:37:39;;;;;;;38.50;28.80;;;;;;;17.17;76.21;99058.44;106511;1276;137475;-80
2022/05/06 10:40:23;;;;;;;40.20;28.00;;;;;;;17.24;75.90;99054.98;106307;1276;22546;-80
2022/05/06 10:42:51;;;;;;;39.90;28.00;;;;;;;17.30;75.30;99057.52;106124;1276;138330;-81
2022/05/06 10:45:32;;;;;;;36.00;26.70;;;;;;;17.35;75.14;99056.91;106175;1278;22564;-80
2022/05/06 10:48:22;;;;;;;37.30;26.30;;;;;;;17.37;74.71;99055.54;106214;1277;137494;-81
2022/05/06 10:50:49;;;;;;;38.30;26.20;;;;;;;17.40;74.44;99053.44;106436;1277;25281;-81
2022/05/06 10:53:33;;;;;;;33.80;25.80;;;;;;;17.40;74.25;99051.73;106384;1277;25264;-81
2022/05/06 10:55:59;;;;;;;35.70;26.40;;;;;;;17.45;74.15;99051.56;106177;1277;137164;-81
2022/05/06 10:58:26;;;;;;;37.90;26.30;;;;;;;17.57;73.89;99049.09;106088;1278;29537;-81
2022/05/06 11:00:59;;;;;;;35.30;23.70;;;;;;;17.71;73.79;99045.92;106264;1277;137780;-82
2022/05/06 11:03:26;;;;;;;32.20;24.70;;;;;;;17.93;73.96;99042.34;106251;1277;22846;-81
2022/05/06 11:05:53;;;;;;;31.90;23.20;;;;;;;18.13;73.64;99038.37;106686;1277;137837;-81
2022/05/06 11:08:21;;;;;;;35.40;23.20;;;;;;;18.32;72.62;99039.13;107279;1277;22619;-82
2022/05/06 11:10:49;;;;;;;29.10;22.60;;;;;;;18.52;71.20;99027.02;106574;1277;23408;-81
2022/05/06 11:13:30;;;;;;;29.90;23.50;;;;;;;18.71;69.78;99029.73;106630;1277;137417;-80
2022/05/06 11:16:05;;;;;;;31.20;22.60;;;;;;;18.82;70.05;99031.13;106647;1277;24323;-79
2022/05/06 11:18:50;;;;;;;31.50;22.10;;;;;;;18.90;69.10;99027.84;106016;1277;137212;-82
2022/05/06 11:21:32;;;;;;;27.00;19.10;;;;;;;19.00;68.60;99026.39;106879;1277;23909;-81
2022/05/06 11:24:15;;;;;;;27.60;18.50;;;;;;;19.09;67.96;99026.65;106622;1277;137916;-81
2022/05/06 11:27:14;;;;;;;19.40;14.70;;;;;;;19.19;66.88;99020.12;106361;1278;22579;-81
2022/05/06 11:29:57;;;;;;;18.80;14.50;;;;;;;19.27;65.78;99022.66;106249;1277;22562;-81
2022/05/06 11:32:26;;;;;;;23.00;15.40;;;;;;;19.31;64.99;99018.03;106665;1277;137533;-81
2022/05/06 11:35:11;;;;;;;23.10;15.90;;;;;;;19.34;64.43;99016.74;106524;1277;22775;-80
2022/05/06 11:37:41;;;;;;;20.10;15.20;;;;;;;19.37;64.36;99017.05;106599;1277;138162;-80
2022/05/06 11:42:51;;;;;;;;;;;;;;;19.45;63.90;99009.69;106385;1277;137608;-80
2022/05/06 11:48:16;;;;;;;17.30;13.80;;;;;;;19.43;63.74;99011.63;106322;1277;22562;-81
2022/05/06 11:51:05;;;;;;;19.00;14.10;;;;;;;19.40;62.82;99013.60;106473;1277;25789;-80
2022/05/06 11:53:32;;;;;;;18.00;14.60;;;;;;;19.36;63.18;99006.45;106194;1277;22552;-80
2022/05/06 11:55:59;;;;;;;19.50;15.40;;;;;;;19.33;62.99;99006.25;106224;1277;137520;-80
2022/05/06 11:58:26;;;;;;;21.20;14.20;;;;;;;19.28;62.61;99003.08;106608;1276;22645;-80
2022/05/06 12:00:54;;;;;;;19.30;14.00;;;;;;;19.20;62.92;99003.21;106225;1277;137975;-81
2022/05/06 12:03:24;;;;;;;28.00;15.30;;;;;;;19.15;63.29;99006.50;106376;1277;22624;-82
2022/05/06 12:06:06;;;;;;;20.70;13.60;;;;;;;19.12;63.21;99003.77;106515;1277;22545;-81
2022/05/06 12:08:34;;;;;;;16.90;14.30;;;;;;;19.10;63.65;99004.84;106403;1277;137340;-81
2022/05/06 12:11:04;;;;;;;20.00;13.50;;;;;;;19.11;64.13;99003.39;106595;1277;31693;-81
2022/05/06 12:13:45;;;;;;;14.70;12.30;;;;;;;19.10;64.07;99005.99;106048;1277;137566;-81
2022/05/06 12:16:13;;;;;;;17.40;13.60;;;;;;;19.09;63.82;99008.21;106563;1277;26980;-80
2022/05/06 12:18:54;;;;;;;;;;;;;;;19.07;63.89;99003.91;106376;1277;24268;-80
2022/05/06 12:21:26;;;;;;;17.80;12.90;;;;;;;19.05;63.82;99005.38;106504;1275;123232;-81
2022/05/06 12:24:02;;;;;;;16.30;12.70;;;;;;;19.06;63.39;98998.73;106209;1277;24247;-81
2022/05/06 12:26:47;;;;;;;14.80;12.00;;;;;;;19.07;62.94;98997.96;106570;1277;137503;-81
2022/05/06 12:29:23;;;;;;;14.00;12.10;;;;;;;19.11;62.99;98995.38;106543;1277;22745;-81